createdAt,value
2019-06-29T00:01:06.334Z,101462.86
2019-06-29T00:06:09.754Z,101458.41
2019-06-29T00:11:13.168Z,101466.41
2019-06-29T00:16:16.622Z,101464.02
2019-06-29T00:21:20.033Z,101463.14
2019-06-29T00:26:23.463Z,101457.94
2019-06-29T00:31:26.919Z,101460.27
2019-06-29T00:36:30.344Z,101449.22
2019-06-29T00:41:34.300Z,101453.78
2019-06-29T00:46:37.739Z,101446.19
2019-06-29T00:51:41.169Z,101444.09
2019-06-29T00:56:44.599Z,101450.50
2019-06-29T01:01:48.020Z,101447.01
2019-06-29T01:06:51.462Z,101445.69
2019-06-29T01:11:54.956Z,101442.77
2019-06-29T01:16:58.393Z,101440.30
2019-06-29T01:22:01.808Z,101444.28
2019-06-29T01:27:05.226Z,101441.59
2019-06-29T01:32:08.810Z,101432.68
2019-06-29T01:37:12.227Z,101425.38
2019-06-29T01:42:15.673Z,101415.75
2019-06-29T01:47:19.093Z,101418.86
2019-06-29T01:52:22.578Z,101404.38
2019-06-29T01:57:26.009Z,101407.60
2019-06-29T02:02:29.423Z,101402.17
2019-06-29T02:07:32.864Z,101407.30
2019-06-29T02:12:36.490Z,101403.49
2019-06-29T02:17:39.863Z,101398.17
2019-06-29T02:22:43.365Z,101387.94
2019-06-29T02:27:46.867Z,101375.72
2019-06-29T02:32:50.376Z,101369.57
2019-06-29T02:37:53.845Z,101357.80
2019-06-29T02:42:57.290Z,101355.69
2019-06-29T02:48:00.711Z,101357.38
2019-06-29T02:53:04.418Z,101360.11
2019-06-29T02:58:07.983Z,101370.70
2019-06-29T03:03:11.537Z,101363.25
2019-06-29T03:08:15.183Z,101361.39
2019-06-29T03:13:18.748Z,101364.77
2019-06-29T03:18:22.178Z,101357.66
2019-06-29T03:23:25.623Z,101351.20
2019-06-29T03:28:29.064Z,101350.47
2019-06-29T03:33:32.644Z,101344.98
2019-06-29T03:38:37.035Z,101353.49
2019-06-29T03:43:40.535Z,101347.80
2019-06-29T03:48:43.964Z,101348.15
2019-06-29T03:53:47.404Z,101353.05
2019-06-29T03:58:50.932Z,101342.42
2019-06-29T04:03:56.114Z,101344.25
2019-06-29T04:09:19.274Z,101344.21
2019-06-29T04:14:42.557Z,101344.53
2019-06-29T04:19:49.044Z,101346.61
2019-06-29T04:24:58.045Z,101340.59
2019-06-29T04:30:20.444Z,101338.38
2019-06-29T04:35:54.416Z,101326.05
2019-06-29T04:41:18.984Z,101334.34
2019-06-29T04:46:22.554Z,101335.65
2019-06-29T04:51:26.062Z,101337.53
2019-06-29T04:56:43.069Z,101332.16
2019-06-29T05:01:34.789Z,101329.75
2019-06-29T05:06:38.314Z,101327.75
2019-06-29T05:11:41.763Z,101319.61
2019-06-29T05:16:45.177Z,101324.98
2019-06-29T05:21:48.617Z,101332.20
2019-06-29T05:27:00.458Z,101329.80
2019-06-29T05:31:58.226Z,101324.72
2019-06-29T05:37:01.880Z,101333.59
2019-06-29T05:42:05.319Z,101330.14
2019-06-29T05:47:08.739Z,101327.61
2019-06-29T05:52:12.256Z,101319.85
2019-06-29T05:57:17.233Z,101316.81
2019-06-29T06:02:20.997Z,101314.11
2019-06-29T06:07:24.427Z,101311.44
2019-06-29T06:12:27.831Z,101310.92
2019-06-29T06:17:31.349Z,101307.23
2019-06-29T06:22:34.753Z,101300.35
2019-06-29T06:27:38.179Z,101295.92
2019-06-29T06:32:41.696Z,101300.94
2019-06-29T06:37:45.229Z,101293.75
2019-06-29T06:42:48.665Z,101296.84
2019-06-29T06:47:52.087Z,101294.09
2019-06-29T06:52:55.521Z,101290.73
2019-06-29T06:57:58.962Z,101288.20
2019-06-29T07:03:02.402Z,101286.06
2019-06-29T07:08:05.837Z,101274.95
2019-06-29T07:13:09.240Z,101274.95
2019-06-29T07:18:12.718Z,101282.19
2019-06-29T07:23:16.173Z,101287.98
2019-06-29T07:28:19.607Z,101275.34
2019-06-29T07:33:23.020Z,101272.00
2019-06-29T07:38:26.451Z,101268.65
2019-06-29T07:43:29.883Z,101264.76
2019-06-29T07:48:34.115Z,101260.73
2019-06-29T07:53:39.782Z,101260.41
2019-06-29T07:58:43.233Z,101258.16
2019-06-29T08:03:46.793Z,101258.09
2019-06-29T08:08:50.208Z,101257.84
2019-06-29T08:13:53.726Z,101248.92
2019-06-29T08:18:57.201Z,101249.14
2019-06-29T08:24:00.769Z,101244.59
2019-06-29T08:29:05.530Z,101241.89
2019-06-29T08:34:08.996Z,101235.88
2019-06-29T08:39:12.408Z,101234.69
2019-06-29T08:44:15.884Z,101236.75
2019-06-29T08:49:19.387Z,101235.92
2019-06-29T08:54:23.554Z,101232.87
2019-06-29T08:59:27.015Z,101225.30
2019-06-29T09:04:30.447Z,101221.49
2019-06-29T09:09:33.884Z,101212.37
2019-06-29T09:14:37.295Z,101217.11
2019-06-29T09:19:40.733Z,101203.68
2019-06-29T09:24:44.154Z,101196.36
2019-06-29T09:29:47.638Z,101194.64
2019-06-29T09:34:52.098Z,101189.59
2019-06-29T09:39:55.935Z,101191.33
2019-06-29T09:45:01.571Z,101194.36
2019-06-29T09:50:08.039Z,101196.55
2019-06-29T09:55:12.284Z,101190.38
2019-06-29T10:00:21.907Z,101179.20
2019-06-29T10:05:25.525Z,101176.18
2019-06-29T10:10:28.962Z,101169.39
2019-06-29T10:15:32.394Z,101162.72
2019-06-29T10:20:35.811Z,101163.11
2019-06-29T10:25:44.401Z,101160.53
2019-06-29T10:30:46.454Z,101163.58
2019-06-29T10:35:52.095Z,101153.61
2019-06-29T10:40:55.064Z,101141.64
2019-06-29T10:45:58.512Z,101145.02
2019-06-29T10:51:04.710Z,101141.20
2019-06-29T10:56:07.074Z,101140.55
2019-06-29T11:01:12.581Z,101131.87
2019-06-29T11:06:15.747Z,101120.99
2019-06-29T11:11:19.243Z,101118.77
2019-06-29T11:16:22.731Z,101121.13
2019-06-29T11:21:26.135Z,101104.96
2019-06-29T11:26:31.684Z,101113.89
2019-06-29T11:31:34.789Z,101107.47
2019-06-29T11:36:38.226Z,101100.14
2019-06-29T11:41:42.797Z,101098.84
2019-06-29T11:46:46.366Z,101087.32
2019-06-29T11:51:52.043Z,101083.72
2019-06-29T11:56:54.953Z,101079.44
2019-06-29T12:01:58.451Z,101067.52
2019-06-29T12:07:02.547Z,101070.19
2019-06-29T12:12:06.124Z,101063.64
2019-06-29T12:17:12.001Z,101055.42
2019-06-29T12:22:14.835Z,101051.58
2019-06-29T12:27:18.338Z,101044.63
2019-06-29T12:32:22.841Z,101053.41
2019-06-29T12:37:26.486Z,101044.44
2019-06-29T12:42:31.533Z,101040.27
2019-06-29T12:47:35.153Z,101026.25
2019-06-29T12:52:38.610Z,101033.54
2019-06-29T12:57:45.132Z,101019.04
2019-06-29T13:02:47.218Z,101023.70
2019-06-29T13:07:50.735Z,101023.06
2019-06-29T13:12:54.181Z,101002.38
2019-06-29T13:17:57.688Z,100995.55
2019-06-29T13:23:01.131Z,100988.59
2019-06-29T13:28:04.668Z,100982.98
2019-06-29T13:33:08.155Z,100980.02
2019-06-29T13:38:11.593Z,100984.69
2019-06-29T13:43:15.042Z,100979.73
2019-06-29T13:48:18.476Z,100970.90
2019-06-29T13:53:21.894Z,100964.68
2019-06-29T13:58:25.309Z,100967.75
2019-06-29T14:03:28.761Z,100959.61
2019-06-29T14:08:32.290Z,100959.84
2019-06-29T14:13:35.746Z,100953.94
2019-06-29T14:18:39.186Z,100946.69
2019-06-29T14:23:42.608Z,100946.10
2019-06-29T14:28:46.303Z,100940.32
2019-06-29T14:33:49.774Z,100936.84
2019-06-29T14:38:53.211Z,100919.89
2019-06-29T14:43:56.636Z,100917.63
2019-06-29T14:49:00.200Z,100903.48
2019-06-29T14:54:04.592Z,100902.42
2019-06-29T14:59:08.140Z,100904.05
2019-06-29T15:04:11.588Z,100893.41
2019-06-29T15:09:15.041Z,100884.89
2019-06-29T15:14:18.518Z,100879.52
2019-06-29T15:19:21.957Z,100867.45
2019-06-29T15:24:25.481Z,100870.75
2019-06-29T15:29:28.913Z,100857.47
2019-06-29T15:34:32.346Z,100856.55
2019-06-29T15:39:35.806Z,100852.80
2019-06-29T15:44:39.261Z,100847.08
2019-06-29T15:49:42.684Z,100851.83
2019-06-29T15:54:46.125Z,100845.22
2019-06-29T15:59:49.580Z,100833.89
2019-06-29T16:04:53.017Z,100825.09
2019-06-29T16:09:57.090Z,100819.39
2019-06-29T16:15:00.473Z,100811.33
2019-06-29T16:20:05.557Z,100804.18
2019-06-29T16:25:09.149Z,100804.56
2019-06-29T16:30:13.097Z,100796.98
2019-06-29T16:35:16.546Z,100793.33
2019-06-29T16:40:20.148Z,100794.70
2019-06-29T16:45:23.607Z,100786.22
2019-06-29T16:50:27.040Z,100775.98
2019-06-29T16:55:30.548Z,100776.93
2019-06-29T17:00:39.715Z,100782.05
2019-06-29T17:05:43.226Z,100767.59
2019-06-29T17:10:46.699Z,100764.00
2019-06-29T17:15:50.142Z,100759.36
2019-06-29T17:20:53.613Z,100753.89
2019-06-29T17:25:57.056Z,100747.35
2019-06-29T17:31:00.616Z,100748.37
2019-06-29T17:36:04.042Z,100736.36
2019-06-29T17:41:07.488Z,100735.69
2019-06-29T17:46:10.902Z,100730.95
2019-06-29T17:51:14.333Z,100725.61
2019-06-29T17:56:17.761Z,100720.95
2019-06-29T18:01:22.225Z,100714.25
2019-06-29T18:06:25.728Z,100720.97
2019-06-29T18:11:29.174Z,100711.16
2019-06-29T18:16:32.761Z,100710.71
2019-06-29T18:21:36.200Z,100708.15
2019-06-29T18:26:39.729Z,100697.08
2019-06-29T18:31:43.177Z,100693.36
2019-06-29T18:36:46.611Z,100696.23
2019-06-29T18:41:50.049Z,100681.03
2019-06-29T18:46:54.225Z,100677.75
2019-06-29T18:51:57.599Z,100680.72
2019-06-29T18:57:01.033Z,100676.78
2019-06-29T19:02:04.462Z,100674.20
2019-06-29T19:07:07.901Z,100670.27
2019-06-29T19:12:11.396Z,100666.58
2019-06-29T19:17:14.822Z,100666.12
2019-06-29T19:22:21.366Z,100658.60
2019-06-29T19:27:23.556Z,100657.30
2019-06-29T19:32:27.020Z,100665.00
2019-06-29T19:37:30.448Z,100664.42
2019-06-29T19:42:33.943Z,100661.35
2019-06-29T19:47:37.403Z,100658.19
2019-06-29T19:52:40.825Z,100656.98
2019-06-29T19:57:44.296Z,100655.38
2019-06-29T20:02:47.734Z,100650.34
2019-06-29T20:07:51.246Z,100640.58
2019-06-29T20:12:54.705Z,100636.23
2019-06-29T20:17:58.137Z,100636.80
2019-06-29T20:23:01.563Z,100642.72
2019-06-29T20:28:04.993Z,100631.52
2019-06-29T20:33:08.430Z,100634.59
2019-06-29T20:38:11.883Z,100633.84
2019-06-29T20:43:15.312Z,100636.79
2019-06-29T20:48:18.767Z,100632.30
2019-06-29T20:53:22.196Z,100623.07
2019-06-29T20:58:25.671Z,100624.77
2019-06-29T21:03:29.285Z,100618.00
2019-06-29T21:08:32.708Z,100617.83
2019-06-29T21:13:36.125Z,100623.08
2019-06-29T21:18:39.552Z,100620.73
2019-06-29T21:23:43.704Z,100615.02
2019-06-29T21:28:47.245Z,100621.53
2019-06-29T21:33:50.753Z,100617.86
2019-06-29T21:38:54.218Z,100618.84
2019-06-29T21:43:57.674Z,100620.72
2019-06-29T21:49:01.180Z,100620.91
2019-06-29T21:54:05.438Z,100619.97
2019-06-29T21:59:08.881Z,100617.52
2019-06-29T22:04:12.344Z,100620.42
2019-06-29T22:09:15.785Z,100620.44
2019-06-29T22:14:19.215Z,100617.73
2019-06-29T22:19:22.724Z,100615.66
2019-06-29T22:24:26.165Z,100615.00
2019-06-29T22:29:29.611Z,100616.58
2019-06-29T22:34:33.042Z,100615.29
2019-06-29T22:39:36.475Z,100611.13
2019-06-29T22:44:39.939Z,100617.34
2019-06-29T22:49:43.389Z,100609.66
2019-06-29T22:54:46.897Z,100608.72
2019-06-29T22:59:50.324Z,100603.92
2019-06-29T23:04:53.777Z,100597.15
2019-06-29T23:09:57.301Z,100591.00
2019-06-29T23:15:00.752Z,100593.25
2019-06-29T23:20:07.553Z,100590.85
2019-06-29T23:25:12.684Z,100587.89
2019-06-29T23:30:17.722Z,100580.23
2019-06-29T23:35:21.439Z,100582.77
2019-06-29T23:40:26.097Z,100582.91
2019-06-29T23:45:29.540Z,100571.23
2019-06-29T23:50:32.947Z,100562.79
2019-06-29T23:55:36.387Z,100559.43
